• Join FlightAware (Why Join?)
  • Login
  • US Flag 
07:35PM EDT


 

Airport Tracker/Info


-or-


 

Live Flight TrackerFlight Track Log ✈ TCF6008 ✈ 10-Apr-2013 ✈ KMKE - KLGA

Flight Track Log - Related Links

Times and Time Zones

All times are in EDT time to prevent confusion due to time zone crossing. See the TCF6008 flight status page for this flight to view local times or setup timezone preferences in your user account.

Time Position Orientation Groundspeed Altitude Reporting Facility
EDT Latitude Longitude Course Direction KTS MPH feet Rate Location/Type
08:48PM 42.9500 -87.9000 46° Northeast 158 182 1,300  Level KMKE
08:49PM 42.9878 -87.8461 46° Northeast 192 221 3,800 1,920 Climbing Chicago Center
08:50PM 42.9569 -87.7672 118° Southeast 235 270 5,700 2,160 Climbing Chicago Center
08:51PM 42.9625 -87.6553 86° East 290 334 8,300 2,400 Climbing Chicago Center
08:52PM 42.9675 -87.5367 87° East 309 356 10,700 1,980 Climbing Chicago Center
08:53PM 42.9733 -87.3964 87° East 361 415 12,500 1,920 Climbing Chicago Center
08:54PM 42.9858 -87.2397 84° East 386 444 14,700 2,160 Climbing Chicago Center
08:55PM 43.0000 -87.0844 83° East 405 466 17,000 1,980 Climbing Chicago Center
08:56PM 43.0111 -86.9261 84° East 416 479 18,800 1,740 Climbing Chicago Center
08:57PM 43.0236 -86.7578 84° East 437 503 20,600 1,800 Climbing Chicago Center
08:58PM 43.0356 -86.5883 84° East 449 517 22,600 1,740 Climbing Chicago Center
08:59PM 43.0489 -86.4150 84° East 456 525 24,200 1,500 Climbing Chicago Center
09:00PM 43.0639 -86.2019 84° East 468 539 25,800 1,260 Climbing Chicago Center
09:01PM 43.0781 -86.0128 84° East 481 554 26,900 1,020 Climbing Chicago Center
09:02PM 43.0897 -85.8147 85° East 494 568 28,000 1,020 Climbing Chicago Center
09:03PM 43.1031 -85.6250 84° East 500 575 29,100 1,020 Climbing Chicago Center
09:04PM 43.1150 -85.4361 85° East 499 574 30,200 1,020 Climbing Chicago Center
09:05PM 43.1278 -85.2481 85° East 496 571 31,300 1,020 Climbing Chicago Center
09:06PM 43.1336 -85.1242 86° East 496 571 31,900 1,020 Climbing Cleveland Center
09:07PM 43.1450 -84.9372 85° East 496 571 33,000 540 Climbing Cleveland Center
09:08PM 43.1564 -84.7444 85° East 496 571 33,000  Level Cleveland Center
09:09PM 43.1675 -84.5486 85° East 501 577 33,000  Level Cleveland Center
09:10PM 43.1800 -84.3614 85° East 501 577 33,000 300 Level Cleveland Center
09:11PM 43.1856 -84.1881 87° East 501 577 33,600 660 Climbing Cleveland Center
09:12PM 43.1956 -83.9950 86° East 501 577 34,400 660 Climbing Cleveland Center
09:13PM 43.2053 -83.8017 86° East 501 577 35,000 300 Climbing Cleveland Center
09:14PM 43.2144 -83.6114 86° East 501 577 35,000  Level Cleveland Center
09:15PM 43.2236 -83.4208 86° East 496 571 35,000  Level Cleveland Center
09:16PM 43.2322 -83.2303 86° East 496 571 35,000  Level Cleveland Center
09:17PM 43.2406 -83.0397 86° East 496 571 35,000  Level Cleveland Center
09:18PM 43.2486 -82.8547 87° East 490 564 35,000  Level Cleveland Center
09:19PM 43.2586 -82.6500 86° East 490 564 35,000  Level Cleveland Center
09:19PM 43.2333 -82.5667 113° Southeast 500 575 35,000  Level Toronto Center
09:20PM 43.2000 -82.3833 104° East 500 575 35,000  Level Toronto Center
09:21PM 43.1667 -82.2000 104° East 500 575 35,000  Level Toronto Center
09:22PM 43.1500 -82.0167 97° East 500 575 35,000  Level Toronto Center
09:23PM 43.1333 -81.8333 97° East 500 575 35,000  Level Toronto Center
09:24PM 43.1000 -81.6500 104° East 500 575 35,000  Level Toronto Center
09:25PM 43.0667 -81.4667 104° East 490 564 35,000  Level Toronto Center
09:26PM 43.0333 -81.2833 104° East 490 564 35,000  Level Toronto Center
09:27PM 43.0167 -81.1000 97° East 500 575 35,000 60 Level Toronto Center
09:28PM 43.0000 -80.8833 96° East 500 575 35,200 360 Climbing Toronto Center
09:29PM 42.9833 -80.7000 97° East 490 564 35,800 600 Climbing Toronto Center
09:30PM 42.9667 -80.5167 97° East 490 564 36,500 600 Climbing Toronto Center
09:31PM 42.9333 -80.3333 104° East 480 552 37,000 240 Climbing Toronto Center
09:32PM 42.9333 -80.1500 90° East 490 564 37,000  Level Toronto Center
09:33PM 42.9167 -79.9667 97° East 490 564 37,000  Level Toronto Center
09:34PM 42.9167 -79.8000 90° East 490 564 37,000  Level Toronto Center
09:35PM 42.9167 -79.6167 90° East 500 575 37,000  Level Toronto Center
09:36PM 42.9167 -79.4333 90° East 500 575 37,000  Level Toronto Center
09:37PM 42.9167 -79.2167 90° East 500 575 37,000  Level Toronto Center
09:38PM 42.9167 -79.0167 90° East 500 575 37,000  Level Toronto Center
09:39PM 42.9167 -78.8333 90° East 500 575 37,000  Level Toronto Center
09:40PM 42.9300 -78.8025 59° Northeast 496 571 37,000  Level Cleveland Center
09:41PM 42.9269 -78.6125 91° East 496 571 37,000  Level Cleveland Center
09:42PM 42.9092 -78.4317 98° East 496 571 37,000  Level Cleveland Center
09:43PM 42.8889 -78.2483 99° East 496 571 37,000  Level Cleveland Center
09:44PM 42.8703 -78.0619 98° East 496 571 37,000  Level Cleveland Center
09:45PM 42.8494 -77.8758 99° East 496 571 37,000  Level Cleveland Center
09:46PM 42.8325 -77.6925 97° East 496 571 37,000  Level Cleveland Center
09:47PM 42.8050 -77.5125 102° East 496 571 37,000  Level Cleveland Center
09:48PM 42.7500 -77.1833 103° East 490 564 37,000  Level Toronto Center
09:49PM 42.7531 -77.1489 83° East 492 566 37,000  Level Boston Center
09:50PM 42.7272 -76.9631 101° East 492 566 37,000  Level Boston Center
09:51PM 42.6975 -76.7631 101° East 492 566 37,000  Level Boston Center
09:52PM 42.6708 -76.5833 101° East 487 560 37,000  Level Boston Center
09:53PM 42.6442 -76.3978 101° East 492 566 37,000 -60 Level Boston Center
09:54PM 42.6192 -76.2128 100° East 492 566 36,900 -540 Descending Boston Center
09:55PM 42.5947 -76.0675 103° East 492 566 36,000 -1,140 Descending Boston Center
09:56PM 42.5600 -75.8456 102° East 492 566 34,700 -1,260 Descending Boston Center
09:57PM 42.5319 -75.6636 102° East 492 566 33,500 -1,320 Descending Boston Center
09:58PM 42.5036 -75.4789 102° East 492 566 32,100 -1,200 Descending Boston Center
09:59PM 42.4803 -75.3342 102° East 492 566 31,100 -1,320 Descending Boston Center
10:00PM 42.4267 -75.1347 110° East 497 572 29,500 -1,500 Descending Boston Center
10:01PM 42.3658 -74.9692 116° Southeast 497 572 28,200 -1,380 Descending Boston Center
10:02PM 42.3050 -74.8039 116° Southeast 492 566 26,900 -1,860 Descending Boston Center
10:03PM 42.2456 -74.6444 117° Southeast 482 555 24,500 -2,400 Descending Boston Center
10:04PM 42.1881 -74.4883 116° Southeast 477 549 22,100 -2,580 Descending Boston Center
10:05PM 42.1264 -74.3239 117° Southeast 455 524 19,300 -1,440 Descending Boston Center
10:06PM 42.0519 -74.1567 121° Southeast 436 502 19,000 -180 Descending Boston Center
10:07PM 41.9850 -74.0264 125° Southeast 430 495 19,000  Level Boston Center
10:08PM 41.9219 -73.9022 124° Southeast 437 503 19,000 -600 Level Boston Center
10:09PM 41.8125 -73.8244 152° Southeast 413 475 17,900 -1,560 Descending Boston Center
10:10PM 41.7189 -73.8169 177° South 377 434 16,000 -2,100 Descending Boston Center
10:11PM 41.6167 -73.8167 180° South 360 414 14,100 -2,160 Descending New York TRACON
10:12PM 41.5333 -73.8000 171° South 353 406 12,300 -1,920 Descending New York TRACON
10:13PM 41.4500 -73.8000 180° South 316 364 10,700 -1,560 Descending New York TRACON
10:15PM 41.2833 -73.7500 167° South 324 373 7,700 -1,440 Descending New York TRACON
10:16PM 41.2167 -73.6833 143° Southeast 310 357 6,400 -1,380 Descending New York TRACON
10:17PM 41.1500 -73.6667 169° South 273 314 5,100 -1,200 Descending New York TRACON
10:18PM 41.0667 -73.7000 197° South 273 314 4,000 -600 Descending New York TRACON
10:19PM 41.0000 -73.7167 191° South 265 305 4,000 -180 Level New York TRACON
10:20PM 40.9333 -73.7500 201° Southwest 240 276 3,700 -840 Descending New York TRACON
10:21PM 40.8833 -73.7833 207° Southwest 205 236 2,400 -1,200 Descending New York TRACON
10:22PM 40.8500 -73.8167 217° Southwest 165 190 1,300 -900 Descending New York TRACON
10:23PM 40.8167 -73.8500 217° Southwest 135 155 600 -720 Descending New York TRACON
10:25PM 40.7772 -73.8726 180° South  Level Estimated
10:32PM 40.7772 -73.8726 180° South  Level Estimated
10:33PM 40.7772 -73.8726 180° South  Level Estimated